SPSMI EPLS-EPZP
Flight info
| Callsign | SPSMI |
|---|---|
| Flight time | 0h 42m |
| Altitude | 2500 |
| Route | EPLSW 5140N01605E EPZPE |
| Aircraft | PZ04/L-SFGY/C |
Departure
| Time | 2026-04-18 13:51 |
|---|---|
| Airport | Leszno-Strzyzewice Airfield (EPLS) |
Arrival
| Time | 2026-04-18 14:33 |
|---|---|
| Airport | Zielona Góra-Przylep Airfield (EPZP) |
| Time | Latitude | Longitude | Altitude | Speed | Heading |
|---|---|---|---|---|---|
| 2026-04-18 13:41 | 51.83319 | 16.53169 | 293 ft | 0 kts | 256° |
| 2026-04-18 13:48 | 51.83319 | 16.53166 | 293 ft | 1 kts | 257° |
| 2026-04-18 13:49 | 51.83318 | 16.53159 | 293 ft | 1 kts | 257° |
| 2026-04-18 13:49 | 51.83322 | 16.53103 | 293 ft | 11 kts | 309° |
| 2026-04-18 13:49 | 51.83421 | 16.53037 | 294 ft | 19 kts | 347° |
| 2026-04-18 13:49 | 51.83534 | 16.52997 | 295 ft | 12 kts | 339° |
| 2026-04-18 13:50 | 51.83573 | 16.52966 | 295 ft | 8 kts | 330° |
| 2026-04-18 13:50 | 51.83579 | 16.52847 | 293 ft | 22 kts | 233° |
| 2026-04-18 13:50 | 51.83333 | 16.52248 | 393 ft | 58 kts | 240° |
| 2026-04-18 13:50 | 51.83195 | 16.51858 | 507 ft | 60 kts | 242° |
| 2026-04-18 13:51 | 51.82930 | 16.50958 | 826 ft | 68 kts | 248° |
| 2026-04-18 13:51 | 51.82952 | 16.50471 | 1000 ft | 69 kts | 316° |
| 2026-04-18 13:51 | 51.83367 | 16.50127 | 1256 ft | 72 kts | 338° |
| 2026-04-18 13:51 | 51.83888 | 16.49727 | 1322 ft | 92 kts | 334° |
| 2026-04-18 13:52 | 51.84322 | 16.49019 | 1522 ft | 92 kts | 291° |
| 2026-04-18 13:52 | 51.84533 | 16.47973 | 1558 ft | 103 kts | 285° |
| 2026-04-18 13:52 | 51.84702 | 16.46867 | 1676 ft | 98 kts | 282° |
| 2026-04-18 13:52 | 51.84813 | 16.45746 | 1658 ft | 105 kts | 275° |
| 2026-04-18 13:53 | 51.84865 | 16.44568 | 1676 ft | 103 kts | 271° |
| 2026-04-18 13:53 | 51.84876 | 16.43407 | 1661 ft | 104 kts | 268° |
| 2026-04-18 13:53 | 51.84929 | 16.42272 | 1699 ft | 98 kts | 287° |
| 2026-04-18 13:53 | 51.85149 | 16.41177 | 1610 ft | 104 kts | 288° |
| 2026-04-18 13:54 | 51.85327 | 16.40063 | 1641 ft | 99 kts | 283° |
| 2026-04-18 13:54 | 51.85481 | 16.38983 | 1678 ft | 100 kts | 282° |
| 2026-04-18 13:54 | 51.85610 | 16.37885 | 1721 ft | 96 kts | 271° |
| 2026-04-18 13:54 | 51.85344 | 16.36901 | 1691 ft | 99 kts | 218° |
| 2026-04-18 13:55 | 51.84685 | 16.36716 | 1651 ft | 99 kts | 171° |
| 2026-04-18 13:55 | 51.83993 | 16.36915 | 1570 ft | 103 kts | 168° |
| 2026-04-18 13:55 | 51.83310 | 16.37184 | 1594 ft | 99 kts | 169° |
| 2026-04-18 13:55 | 51.82639 | 16.37340 | 1598 ft | 100 kts | 174° |
| 2026-04-18 13:56 | 51.81986 | 16.37122 | 1687 ft | 92 kts | 220° |
| 2026-04-18 13:56 | 51.81667 | 16.36210 | 1673 ft | 98 kts | 249° |
| 2026-04-18 13:56 | 51.81429 | 16.35171 | 1690 ft | 97 kts | 251° |
| 2026-04-18 13:56 | 51.81167 | 16.34151 | 1657 ft | 99 kts | 230° |
| 2026-04-18 13:57 | 51.80583 | 16.33537 | 1606 ft | 101 kts | 205° |
| 2026-04-18 13:57 | 51.79989 | 16.32980 | 1623 ft | 98 kts | 219° |
| 2026-04-18 13:57 | 51.79506 | 16.32170 | 1568 ft | 102 kts | 222° |
| 2026-04-18 13:57 | 51.78904 | 16.31586 | 1540 ft | 101 kts | 197° |
| 2026-04-18 13:58 | 51.78234 | 16.31324 | 1558 ft | 98 kts | 187° |
| 2026-04-18 13:58 | 51.77562 | 16.31211 | 1566 ft | 99 kts | 185° |
| 2026-04-18 13:58 | 51.76883 | 16.31138 | 1591 ft | 98 kts | 184° |
| 2026-04-18 13:58 | 51.76200 | 16.31072 | 1614 ft | 97 kts | 186° |
| 2026-04-18 13:59 | 51.75536 | 16.30766 | 1573 ft | 100 kts | 206° |
| 2026-04-18 13:59 | 51.74969 | 16.30153 | 1586 ft | 99 kts | 221° |
| 2026-04-18 13:59 | 51.74470 | 16.29394 | 1598 ft | 97 kts | 225° |
| 2026-04-18 13:59 | 51.73967 | 16.28663 | 1608 ft | 98 kts | 212° |
| 2026-04-18 14:00 | 51.73416 | 16.28028 | 1638 ft | 96 kts | 220° |
| 2026-04-18 14:00 | 51.72908 | 16.27301 | 1626 ft | 99 kts | 225° |
| 2026-04-18 14:00 | 51.72437 | 16.26508 | 1640 ft | 98 kts | 226° |
| 2026-04-18 14:00 | 51.71938 | 16.25756 | 1641 ft | 99 kts | 220° |
| 2026-04-18 14:01 | 51.71425 | 16.25040 | 1661 ft | 97 kts | 219° |
| 2026-04-18 14:01 | 51.70927 | 16.24325 | 1663 ft | 98 kts | 229° |
| 2026-04-18 14:01 | 51.70433 | 16.23582 | 1685 ft | 95 kts | 220° |
| 2026-04-18 14:01 | 51.69978 | 16.22777 | 1659 ft | 99 kts | 236° |
| 2026-04-18 14:02 | 51.69597 | 16.21860 | 1672 ft | 98 kts | 246° |
| 2026-04-18 14:02 | 51.69361 | 16.20833 | 1686 ft | 96 kts | 249° |
| 2026-04-18 14:02 | 51.69119 | 16.19814 | 1692 ft | 98 kts | 253° |
| 2026-04-18 14:02 | 51.68926 | 16.18757 | 1683 ft | 98 kts | 256° |
| 2026-04-18 14:03 | 51.68745 | 16.17711 | 1698 ft | 97 kts | 250° |
| 2026-04-18 14:03 | 51.68567 | 16.16646 | 1666 ft | 99 kts | 260° |
| 2026-04-18 14:03 | 51.68466 | 16.15560 | 1670 ft | 98 kts | 264° |
| 2026-04-18 14:03 | 51.68388 | 16.14466 | 1647 ft | 99 kts | 257° |
| 2026-04-18 14:04 | 51.68209 | 16.13415 | 1646 ft | 98 kts | 252° |
| 2026-04-18 14:04 | 51.67970 | 16.12381 | 1638 ft | 99 kts | 245° |
| 2026-04-18 14:04 | 51.67727 | 16.11352 | 1631 ft | 99 kts | 255° |
| 2026-04-18 14:04 | 51.67508 | 16.10303 | 1568 ft | 102 kts | 230° |
| 2026-04-18 14:05 | 51.66935 | 16.09635 | 1550 ft | 97 kts | 209° |
| 2026-04-18 14:05 | 51.66492 | 16.08874 | 1560 ft | 95 kts | 251° |
| 2026-04-18 14:05 | 51.66571 | 16.07842 | 1545 ft | 97 kts | 304° |
| 2026-04-18 14:05 | 51.66837 | 16.06853 | 1500 ft | 98 kts | 269° |
| 2026-04-18 14:06 | 51.66504 | 16.05909 | 1467 ft | 98 kts | 217° |
| 2026-04-18 14:06 | 51.65935 | 16.05493 | 1484 ft | 98 kts | 198° |
| 2026-04-18 14:06 | 51.65276 | 16.05331 | 1470 ft | 99 kts | 165° |
| 2026-04-18 14:06 | 51.64787 | 16.05981 | 1575 ft | 93 kts | 121° |
| 2026-04-18 14:07 | 51.64517 | 16.06982 | 1586 ft | 94 kts | 104° |
| 2026-04-18 14:07 | 51.64646 | 16.08040 | 1516 ft | 104 kts | 53° |
| 2026-04-18 14:07 | 51.65277 | 16.08568 | 1498 ft | 103 kts | 13° |
| 2026-04-18 14:07 | 51.65961 | 16.08741 | 1570 ft | 98 kts | 356° |
| 2026-04-18 14:08 | 51.66885 | 16.07312 | 1671 ft | 96 kts | 285° |
| 2026-04-18 14:08 | 51.67028 | 16.06241 | 1709 ft | 98 kts | 273° |
| 2026-04-18 14:08 | 51.66849 | 16.05181 | 1717 ft | 101 kts | 240° |
| 2026-04-18 14:09 | 51.66628 | 16.04151 | 1781 ft | 98 kts | 263° |
| 2026-04-18 14:09 | 51.66582 | 16.03043 | 1799 ft | 99 kts | 268° |
| 2026-04-18 14:09 | 51.66580 | 16.01940 | 1808 ft | 99 kts | 272° |
| 2026-04-18 14:09 | 51.66689 | 16.00851 | 1815 ft | 98 kts | 288° |
| 2026-04-18 14:10 | 51.66949 | 15.99848 | 1821 ft | 98 kts | 294° |
| 2026-04-18 14:10 | 51.67263 | 15.98865 | 1817 ft | 98 kts | 296° |
| 2026-04-18 14:10 | 51.67543 | 15.97864 | 1759 ft | 99 kts | 296° |
| 2026-04-18 14:10 | 51.67893 | 15.96900 | 1703 ft | 99 kts | 298° |
| 2026-04-18 14:11 | 51.68227 | 15.95937 | 1693 ft | 98 kts | 301° |
| 2026-04-18 14:11 | 51.68548 | 15.94962 | 1675 ft | 99 kts | 295° |
| 2026-04-18 14:11 | 51.68858 | 15.93979 | 1654 ft | 97 kts | 296° |
| 2026-04-18 14:11 | 51.69150 | 15.92993 | 1634 ft | 99 kts | 294° |
| 2026-04-18 14:12 | 51.69461 | 15.92012 | 1634 ft | 97 kts | 304° |
| 2026-04-18 14:12 | 51.69877 | 15.91143 | 1612 ft | 98 kts | 303° |
| 2026-04-18 14:12 | 51.70207 | 15.90186 | 1611 ft | 97 kts | 294° |
| 2026-04-18 14:12 | 51.70545 | 15.89236 | 1588 ft | 98 kts | 306° |
| 2026-04-18 14:13 | 51.70939 | 15.88345 | 1588 ft | 97 kts | 303° |
| 2026-04-18 14:13 | 51.71312 | 15.87425 | 1573 ft | 97 kts | 301° |
| 2026-04-18 14:13 | 51.71614 | 15.86464 | 1572 ft | 97 kts | 292° |
| 2026-04-18 14:13 | 51.71877 | 15.85452 | 1550 ft | 98 kts | 294° |
| 2026-04-18 14:14 | 51.72241 | 15.84507 | 1509 ft | 100 kts | 312° |
| 2026-04-18 14:14 | 51.72767 | 15.83813 | 1525 ft | 97 kts | 320° |
| 2026-04-18 14:14 | 51.73282 | 15.83088 | 1499 ft | 98 kts | 319° |
| 2026-04-18 14:14 | 51.73746 | 15.82296 | 1491 ft | 98 kts | 300° |
| 2026-04-18 14:15 | 51.73883 | 15.81194 | 1412 ft | 101 kts | 275° |
| 2026-04-18 14:15 | 51.73968 | 15.80094 | 1481 ft | 96 kts | 274° |
| 2026-04-18 14:15 | 51.73927 | 15.79044 | 1518 ft | 99 kts | 252° |
| 2026-04-18 14:15 | 51.73632 | 15.78030 | 1556 ft | 97 kts | 246° |
| 2026-04-18 14:16 | 51.73480 | 15.76973 | 1577 ft | 99 kts | 266° |
| 2026-04-18 14:16 | 51.73515 | 15.75877 | 1621 ft | 98 kts | 279° |
| 2026-04-18 14:16 | 51.73740 | 15.74845 | 1641 ft | 99 kts | 300° |
| 2026-04-18 14:16 | 51.74182 | 15.74006 | 1669 ft | 98 kts | 316° |
| 2026-04-18 14:17 | 51.74666 | 15.73227 | 1709 ft | 98 kts | 322° |
| 2026-04-18 14:17 | 51.75319 | 15.72882 | 1684 ft | 100 kts | 354° |
| 2026-04-18 14:17 | 51.76743 | 15.72644 | 1577 ft | 105 kts | 353° |
| 2026-04-18 14:18 | 51.78174 | 15.72187 | 1471 ft | 105 kts | 339° |
| 2026-04-18 14:18 | 51.78870 | 15.71838 | 1423 ft | 105 kts | 348° |
| 2026-04-18 14:19 | 51.80300 | 15.71315 | 1322 ft | 105 kts | 348° |
| 2026-04-18 14:19 | 51.80939 | 15.70827 | 1347 ft | 99 kts | 304° |
| 2026-04-18 14:19 | 51.80664 | 15.68946 | 1411 ft | 104 kts | 211° |
| 2026-04-18 14:20 | 51.79972 | 15.68713 | 1354 ft | 104 kts | 152° |
| 2026-04-18 14:20 | 51.79761 | 15.69744 | 1317 ft | 103 kts | 76° |
| 2026-04-18 14:20 | 51.79979 | 15.70865 | 1271 ft | 105 kts | 72° |
| 2026-04-18 14:20 | 51.80182 | 15.72025 | 1235 ft | 109 kts | 70° |
| 2026-04-18 14:21 | 51.80649 | 15.72955 | 1178 ft | 109 kts | 30° |
| 2026-04-18 14:21 | 51.81352 | 15.73391 | 1129 ft | 108 kts | 7° |
| 2026-04-18 14:21 | 51.82038 | 15.73011 | 1084 ft | 109 kts | 319° |
| 2026-04-18 14:22 | 51.83248 | 15.71422 | 1287 ft | 107 kts | 308° |
| 2026-04-18 14:22 | 51.83728 | 15.70478 | 1369 ft | 111 kts | 309° |
| 2026-04-18 14:22 | 51.84797 | 15.68515 | 1385 ft | 113 kts | 315° |
| 2026-04-18 14:23 | 51.85351 | 15.67634 | 1595 ft | 108 kts | 315° |
| 2026-04-18 14:23 | 51.86396 | 15.65911 | 1834 ft | 112 kts | 315° |
| 2026-04-18 14:23 | 51.86948 | 15.65039 | 1917 ft | 109 kts | 316° |
| 2026-04-18 14:24 | 51.87970 | 15.63436 | 2144 ft | 89 kts | 318° |
| 2026-04-18 14:24 | 51.87994 | 15.63401 | 2148 ft | 90 kts | 318° |
| 2026-04-18 14:24 | 51.87996 | 15.63397 | 2148 ft | 90 kts | 319° |
| 2026-04-18 14:25 | 51.88440 | 15.62711 | 2204 ft | 88 kts | 314° |
| 2026-04-18 14:25 | 51.88852 | 15.61940 | 2142 ft | 93 kts | 309° |
| 2026-04-18 14:25 | 51.89292 | 15.61072 | 1956 ft | 97 kts | 310° |
| 2026-04-18 14:25 | 51.89715 | 15.60272 | 1870 ft | 89 kts | 312° |
| 2026-04-18 14:26 | 51.90120 | 15.59586 | 1730 ft | 82 kts | 315° |
| 2026-04-18 14:26 | 51.90523 | 15.58965 | 1626 ft | 77 kts | 321° |
| 2026-04-18 14:26 | 51.90932 | 15.58404 | 1518 ft | 82 kts | 316° |
| 2026-04-18 14:26 | 51.91338 | 15.57745 | 1470 ft | 84 kts | 318° |
| 2026-04-18 14:27 | 51.91765 | 15.57144 | 1463 ft | 82 kts | 320° |
| 2026-04-18 14:27 | 51.92202 | 15.56498 | 1421 ft | 85 kts | 313° |
| 2026-04-18 14:27 | 51.92571 | 15.55799 | 1468 ft | 82 kts | 313° |
| 2026-04-18 14:27 | 51.92984 | 15.55095 | 1485 ft | 85 kts | 315° |
| 2026-04-18 14:28 | 51.93361 | 15.54303 | 1486 ft | 93 kts | 306° |
| 2026-04-18 14:28 | 51.93686 | 15.53375 | 1489 ft | 94 kts | 294° |
| 2026-04-18 14:28 | 51.93997 | 15.52527 | 1585 ft | 89 kts | 308° |
| 2026-04-18 14:28 | 51.94409 | 15.51752 | 1552 ft | 98 kts | 321° |
| 2026-04-18 14:29 | 51.94971 | 15.51190 | 1571 ft | 90 kts | 332° |
| 2026-04-18 14:29 | 51.95500 | 15.50758 | 1537 ft | 80 kts | 333° |
| 2026-04-18 14:29 | 51.95931 | 15.50140 | 1393 ft | 87 kts | 307° |
| 2026-04-18 14:29 | 51.96307 | 15.49305 | 1220 ft | 91 kts | 309° |
| 2026-04-18 14:30 | 51.96678 | 15.48537 | 1172 ft | 84 kts | 308° |
| 2026-04-18 14:30 | 51.97030 | 15.47819 | 1143 ft | 77 kts | 308° |
| 2026-04-18 14:30 | 51.97375 | 15.47116 | 1076 ft | 80 kts | 311° |
| 2026-04-18 14:30 | 51.97759 | 15.46478 | 1073 ft | 79 kts | 313° |
| 2026-04-18 14:31 | 51.98116 | 15.45810 | 1093 ft | 78 kts | 309° |
| 2026-04-18 14:31 | 51.98474 | 15.45141 | 1085 ft | 78 kts | 328° |
| 2026-04-18 14:31 | 51.98904 | 15.45389 | 1087 ft | 75 kts | 60° |
| 2026-04-18 14:31 | 51.99179 | 15.46138 | 1053 ft | 78 kts | 58° |
| 2026-04-18 14:32 | 51.99475 | 15.46846 | 1093 ft | 74 kts | 53° |
| 2026-04-18 14:32 | 51.99556 | 15.47442 | 1035 ft | 64 kts | 132° |
| 2026-04-18 14:32 | 51.99250 | 15.47921 | 908 ft | 58 kts | 143° |
| 2026-04-18 14:32 | 51.98923 | 15.48307 | 799 ft | 57 kts | 159° |
| 2026-04-18 14:33 | 51.98552 | 15.48126 | 645 ft | 60 kts | 224° |
| 2026-04-18 14:33 | 51.98307 | 15.47608 | 479 ft | 58 kts | 240° |
| 2026-04-18 14:33 | 51.98125 | 15.47052 | 310 ft | 54 kts | 243° |
| 2026-04-18 14:33 | 51.97977 | 15.46621 | 248 ft | 29 kts | 243° |
| 2026-04-18 14:34 | 51.97892 | 15.46461 | 250 ft | 15 kts | 193° |
| 2026-04-18 14:34 | 51.97793 | 15.46449 | 255 ft | 13 kts | 193° |
| 2026-04-18 14:34 | 51.97704 | 15.46428 | 259 ft | 13 kts | 169° |
| 2026-04-18 14:34 | 51.97602 | 15.46434 | 258 ft | 16 kts | 186° |
| 2026-04-18 14:35 | 51.97543 | 15.46426 | 258 ft | 0 kts | 279° |